Terminal Aerodrome Forecast
Issued by NWS Hastings, NE

Home | Current Version | Previous Version | Text Only | Print | Product List | Glossary On
Versions: 1 2 3 4 5 6 7 8 9 10 11 12 13 14 15 16 17 18 19 20 21 22
000
FTUS43 KGID 241143
TAFGRI
TAF
KGRI 241143Z 2412/2512 17020G29KT P6SM BKN250 WS010/19060KT
     FM241500 18024G32KT P6SM BKN250
     FM241900 22015KT P6SM SCT250
     FM250000 VRB06KT P6SM SCT120 BKN200
     FM250300 05008KT P6SM BKN120
     FM250700 05012G18KT P6SM SCT050 BKN120=

USA.gov is the U.S. government's official web portal to all federal, state and local government web resources and services.